createdAt,value
2018-09-23T00:00:15.154Z,19.50
2018-09-23T00:02:42.570Z,19.50
2018-09-23T00:05:10.016Z,19.40
2018-09-23T00:07:37.506Z,19.40
2018-09-23T00:10:05.362Z,19.40
2018-09-23T00:12:32.758Z,19.40
2018-09-23T00:15:00.196Z,19.30
2018-09-23T00:17:27.644Z,19.30
2018-09-23T00:19:55.039Z,19.30
2018-09-23T00:22:22.609Z,19.30
2018-09-23T00:24:49.924Z,19.30
2018-09-23T00:27:17.320Z,19.30
2018-09-23T00:29:48.844Z,19.20
2018-09-23T00:32:16.490Z,19.20
2018-09-23T00:34:43.918Z,19.20
2018-09-23T00:37:11.342Z,19.20
2018-09-23T00:39:38.772Z,19.20
2018-09-23T00:42:06.367Z,19.10
2018-09-23T00:44:33.805Z,19.10
2018-09-23T00:47:01.220Z,19.10
2018-09-23T00:49:28.650Z,19.10
2018-09-23T00:51:56.141Z,19.10
2018-09-23T00:54:23.550Z,19.10
2018-09-23T00:56:50.975Z,19.10
2018-09-23T00:59:18.404Z,19.10
2018-09-23T01:01:45.832Z,19.10
2018-09-23T01:04:13.257Z,19.10
2018-09-23T01:06:40.687Z,19.10
2018-09-23T01:09:09.107Z,19.10
2018-09-23T01:11:36.759Z,19.10
2018-09-23T01:14:04.309Z,19.00
2018-09-23T01:16:31.755Z,19.00
2018-09-23T01:18:59.170Z,19.00
2018-09-23T01:21:26.573Z,19.00
2018-09-23T01:23:54.099Z,19.00
2018-09-23T01:26:21.501Z,19.00
2018-09-23T01:28:48.938Z,19.00
2018-09-23T01:31:16.390Z,19.00
2018-09-23T01:33:43.831Z,19.00
2018-09-23T01:36:11.233Z,19.00
2018-09-23T01:38:38.630Z,19.00
2018-09-23T01:41:06.051Z,19.00
2018-09-23T01:43:33.499Z,19.00
2018-09-23T01:46:01.249Z,19.00
2018-09-23T01:48:28.659Z,19.00
2018-09-23T01:50:56.085Z,19.00
2018-09-23T01:53:23.485Z,19.00
2018-09-23T01:55:50.955Z,19.00
2018-09-23T01:58:18.393Z,19.00
2018-09-23T02:00:45.957Z,19.00
2018-09-23T02:03:13.337Z,19.00
2018-09-23T02:05:40.795Z,21.00
2018-09-23T02:08:08.228Z,19.00
2018-09-23T02:10:35.641Z,19.00
2018-09-23T02:13:03.093Z,19.00
2018-09-23T02:15:31.062Z,19.00
2018-09-23T02:17:58.468Z,19.00
2018-09-23T02:20:26.566Z,19.00
2018-09-23T02:22:53.974Z,19.00
2018-09-23T02:25:21.408Z,19.00
2018-09-23T02:27:49.398Z,18.90
2018-09-23T02:30:16.862Z,18.90
2018-09-23T02:32:44.260Z,18.90
2018-09-23T02:35:11.647Z,18.90
2018-09-23T02:37:39.078Z,18.90
2018-09-23T02:40:06.556Z,18.90
2018-09-23T02:42:33.962Z,18.90
2018-09-23T02:45:01.385Z,18.90
2018-09-23T02:47:28.803Z,18.90
2018-09-23T02:49:56.446Z,18.90
2018-09-23T02:52:23.889Z,18.90
2018-09-23T02:54:51.274Z,18.90
2018-09-23T02:57:18.716Z,18.90
2018-09-23T02:59:46.152Z,18.90
2018-09-23T03:02:13.578Z,18.90
2018-09-23T03:04:40.984Z,18.90
2018-09-23T03:07:08.489Z,18.90
2018-09-23T03:09:35.909Z,18.80
2018-09-23T03:12:03.356Z,18.90
2018-09-23T03:14:30.731Z,18.80
2018-09-23T03:16:58.163Z,18.80
2018-09-23T03:19:25.847Z,18.80
2018-09-23T03:21:53.295Z,18.80
2018-09-23T03:24:20.763Z,18.80
2018-09-23T03:26:48.198Z,18.80
2018-09-23T03:29:15.639Z,18.80
2018-09-23T03:31:43.063Z,18.80
2018-09-23T03:34:10.483Z,18.80
2018-09-23T03:36:37.865Z,18.80
2018-09-23T03:39:06.315Z,18.80
2018-09-23T03:41:33.792Z,18.70
2018-09-23T03:44:01.213Z,18.70
2018-09-23T03:46:28.640Z,18.70
2018-09-23T03:48:56.051Z,18.70
2018-09-23T03:51:23.615Z,18.60
2018-09-23T03:53:51.031Z,18.60
2018-09-23T03:56:18.393Z,18.60
2018-09-23T03:58:45.823Z,18.50
2018-09-23T04:01:13.239Z,18.60
2018-09-23T04:03:40.677Z,18.50
2018-09-23T04:06:08.078Z,18.50
2018-09-23T04:08:35.570Z,18.50
2018-09-23T04:11:02.995Z,18.40
2018-09-23T04:13:30.448Z,18.40
2018-09-23T04:15:57.902Z,18.40
2018-09-23T04:18:25.289Z,18.40
2018-09-23T04:20:52.719Z,18.30
2018-09-23T04:23:20.157Z,18.30
2018-09-23T04:25:47.587Z,18.30
2018-09-23T04:28:14.999Z,18.20
2018-09-23T04:30:42.406Z,18.20
2018-09-23T04:33:09.799Z,18.20
2018-09-23T04:35:37.198Z,18.20
2018-09-23T04:38:04.765Z,18.20
2018-09-23T04:40:32.160Z,18.10
2018-09-23T04:42:59.628Z,18.10
2018-09-23T04:45:27.069Z,18.10
2018-09-23T04:47:54.488Z,18.00
2018-09-23T04:50:21.905Z,18.00
2018-09-23T04:52:49.351Z,18.00
2018-09-23T04:55:16.762Z,18.00
2018-09-23T04:57:44.206Z,18.00
2018-09-23T05:00:11.630Z,18.00
2018-09-23T05:02:39.233Z,17.90
2018-09-23T05:05:06.726Z,17.90
2018-09-23T05:07:34.144Z,17.90
2018-09-23T05:10:01.541Z,17.90
2018-09-23T05:12:28.974Z,17.90
2018-09-23T05:14:56.700Z,17.90
2018-09-23T05:17:24.252Z,17.90
2018-09-23T05:19:51.683Z,17.90
2018-09-23T05:22:19.164Z,17.90
2018-09-23T05:24:46.600Z,17.90
2018-09-23T05:27:14.042Z,17.90
2018-09-23T05:29:41.420Z,17.80
2018-09-23T05:32:08.818Z,17.90
2018-09-23T05:34:36.220Z,17.90
2018-09-23T05:37:03.606Z,17.90
2018-09-23T05:39:31.024Z,17.90
2018-09-23T05:41:58.541Z,17.90
2018-09-23T05:44:25.935Z,17.90
2018-09-23T05:46:53.352Z,17.90
2018-09-23T05:49:20.752Z,18.00
2018-09-23T05:51:48.150Z,18.00
2018-09-23T05:54:15.575Z,18.00
2018-09-23T05:56:43.014Z,18.00
2018-09-23T05:59:10.442Z,18.00
2018-09-23T06:01:37.934Z,18.10
2018-09-23T06:04:05.409Z,18.10
2018-09-23T06:06:32.874Z,18.10
2018-09-23T06:09:00.399Z,18.10
2018-09-23T06:11:27.818Z,18.10
2018-09-23T06:13:56.122Z,18.10
2018-09-23T06:16:23.541Z,18.10
2018-09-23T06:18:50.995Z,18.30
2018-09-23T06:21:18.414Z,18.20
2018-09-23T06:23:45.854Z,18.20
2018-09-23T06:26:13.272Z,18.20
2018-09-23T06:28:40.713Z,18.20
2018-09-23T06:31:08.138Z,18.30
2018-09-23T06:33:35.597Z,18.30
2018-09-23T06:36:03.128Z,18.30
2018-09-23T06:38:30.634Z,18.30
2018-09-23T06:40:58.084Z,18.30
2018-09-23T06:43:25.512Z,18.10
2018-09-23T06:45:52.927Z,18.40
2018-09-23T06:48:20.356Z,18.40
2018-09-23T06:50:47.788Z,18.40
2018-09-23T06:53:15.186Z,18.40
2018-09-23T06:55:42.647Z,18.50
2018-09-23T06:58:10.052Z,19.00
2018-09-23T07:00:37.478Z,18.50
2018-09-23T07:03:05.350Z,18.60
2018-09-23T07:05:32.782Z,18.60
2018-09-23T07:08:00.183Z,18.70
2018-09-23T07:10:28.233Z,18.70
2018-09-23T07:12:55.628Z,18.80
2018-09-23T07:15:23.215Z,18.80
2018-09-23T07:17:50.680Z,18.80
2018-09-23T07:20:18.227Z,18.90
2018-09-23T07:22:45.710Z,18.90
2018-09-23T07:25:13.179Z,19.00
2018-09-23T07:27:40.631Z,19.00
2018-09-23T07:30:08.233Z,19.00
2018-09-23T07:32:35.689Z,19.10
2018-09-23T07:35:03.273Z,19.20
2018-09-23T07:37:30.695Z,19.20
2018-09-23T07:39:58.287Z,19.30
2018-09-23T07:42:25.741Z,19.30
2018-09-23T07:44:53.180Z,19.40
2018-09-23T07:47:20.707Z,19.50
2018-09-23T07:49:48.162Z,19.50
2018-09-23T07:52:15.681Z,19.60
2018-09-23T07:54:43.130Z,19.70
2018-09-23T07:57:10.607Z,19.80
2018-09-23T07:59:38.031Z,19.80
2018-09-23T08:02:05.549Z,20.00
2018-09-23T08:04:33.583Z,20.10
2018-09-23T08:07:01.060Z,20.20
2018-09-23T08:09:28.485Z,20.30
2018-09-23T08:11:56.962Z,20.40
2018-09-23T08:14:24.819Z,20.50
2018-09-23T08:16:51.959Z,20.60
2018-09-23T08:19:20.297Z,20.80
2018-09-23T08:21:48.524Z,19.80
2018-09-23T08:24:16.109Z,21.00
2018-09-23T08:26:43.605Z,21.20
2018-09-23T08:29:11.057Z,21.30
2018-09-23T08:31:38.477Z,21.50
2018-09-23T08:34:06.013Z,21.80
2018-09-23T08:36:33.489Z,22.00
2018-09-23T08:39:00.973Z,22.30
2018-09-23T08:41:28.367Z,22.50
2018-09-23T08:43:55.954Z,22.70
2018-09-23T08:46:23.604Z,22.90
2018-09-23T08:48:51.043Z,23.10
2018-09-23T08:51:18.483Z,23.20
2018-09-23T08:53:45.918Z,23.40
2018-09-23T08:56:13.349Z,23.50
2018-09-23T08:58:40.787Z,23.80
2018-09-23T09:01:08.183Z,24.10
2018-09-23T09:03:35.656Z,24.30
2018-09-23T09:06:03.223Z,24.60
2018-09-23T09:08:30.736Z,24.90
2018-09-23T09:10:58.182Z,25.00
2018-09-23T09:13:25.637Z,25.00
2018-09-23T09:15:53.143Z,25.10
2018-09-23T09:18:20.696Z,25.00
2018-09-23T09:20:48.042Z,25.00
2018-09-23T09:23:15.479Z,25.00
2018-09-23T09:25:43.210Z,25.10
2018-09-23T09:28:10.672Z,25.10
2018-09-23T09:30:38.146Z,25.20
2018-09-23T09:33:05.549Z,25.30
2018-09-23T09:35:32.986Z,25.40
2018-09-23T09:38:00.388Z,25.60
2018-09-23T09:40:27.823Z,26.00
2018-09-23T09:42:55.307Z,26.50
2018-09-23T09:45:22.752Z,27.00
2018-09-23T09:47:50.158Z,27.40
2018-09-23T09:50:17.567Z,27.70
2018-09-23T09:52:44.994Z,27.90
2018-09-23T09:55:12.420Z,27.90
2018-09-23T09:57:39.827Z,28.00
2018-09-23T10:00:07.533Z,27.90
2018-09-23T10:02:35.240Z,27.80
2018-09-23T10:05:02.651Z,27.80
2018-09-23T10:07:30.092Z,27.70
2018-09-23T10:09:57.503Z,27.60
2018-09-23T10:12:24.972Z,27.70
2018-09-23T10:14:52.391Z,27.80
2018-09-23T10:17:19.881Z,28.10
2018-09-23T10:19:47.403Z,28.50
2018-09-23T10:22:14.804Z,29.00
2018-09-23T10:24:42.252Z,29.40
2018-09-23T10:27:09.687Z,29.70
2018-09-23T10:29:37.130Z,29.90
2018-09-23T10:32:04.658Z,30.00
2018-09-23T10:34:32.123Z,30.30
2018-09-23T10:36:59.573Z,30.60
2018-09-23T10:39:27.040Z,31.00
2018-09-23T10:41:54.794Z,31.50
2018-09-23T10:44:22.249Z,31.90
2018-09-23T10:46:49.682Z,32.10
2018-09-23T10:49:17.089Z,32.60
2018-09-23T10:51:44.529Z,32.60
2018-09-23T10:54:12.006Z,32.70
2018-09-23T10:56:39.449Z,32.70
2018-09-23T10:59:06.881Z,32.70
2018-09-23T11:01:34.327Z,32.70
2018-09-23T11:04:01.848Z,32.70
2018-09-23T11:06:29.208Z,32.70
2018-09-23T11:08:56.657Z,32.60
2018-09-23T11:11:24.161Z,32.40
2018-09-23T11:13:51.772Z,32.30
2018-09-23T11:16:19.253Z,32.10
2018-09-23T11:18:46.745Z,31.80
2018-09-23T11:21:14.166Z,31.50
2018-09-23T11:23:41.667Z,31.50
2018-09-23T11:26:09.105Z,31.40
2018-09-23T11:28:36.532Z,31.40
2018-09-23T11:31:04.000Z,31.80
2018-09-23T11:33:31.625Z,32.40
2018-09-23T11:35:59.078Z,33.20
2018-09-23T11:38:26.557Z,34.20
2018-09-23T11:40:53.998Z,35.10
2018-09-23T11:43:21.522Z,35.80
2018-09-23T11:45:49.014Z,36.50
2018-09-23T11:48:16.778Z,37.00
2018-09-23T11:50:44.256Z,37.50
2018-09-23T11:53:11.718Z,37.90
2018-09-23T11:55:39.185Z,38.30
2018-09-23T11:58:06.643Z,38.60
2018-09-23T12:00:34.042Z,39.20
2018-09-23T12:03:01.438Z,39.50
2018-09-23T12:05:28.878Z,40.00
2018-09-23T12:07:56.320Z,40.50
2018-09-23T12:10:23.804Z,40.90
2018-09-23T12:12:51.288Z,41.40
2018-09-23T12:15:18.749Z,42.00
2018-09-23T12:17:46.164Z,42.50
2018-09-23T12:20:13.624Z,42.90
2018-09-23T12:22:41.062Z,43.20
2018-09-23T12:25:08.497Z,43.60
2018-09-23T12:27:35.957Z,43.90
2018-09-23T12:30:03.463Z,44.30
2018-09-23T12:32:30.940Z,44.50
2018-09-23T12:34:58.390Z,44.60
2018-09-23T12:37:25.800Z,44.60
2018-09-23T12:39:53.244Z,44.60
2018-09-23T12:42:20.674Z,44.50
2018-09-23T12:44:48.096Z,44.30
2018-09-23T12:47:15.545Z,44.30
2018-09-23T12:49:42.980Z,44.10
2018-09-23T12:52:10.428Z,44.10
2018-09-23T12:54:37.858Z,44.00
2018-09-23T12:57:05.352Z,43.90
2018-09-23T12:59:32.788Z,44.00
2018-09-23T13:02:00.220Z,44.10
2018-09-23T13:04:27.683Z,44.20
2018-09-23T13:06:55.162Z,44.40
2018-09-23T13:09:22.613Z,44.60
2018-09-23T13:11:50.122Z,44.90
2018-09-23T13:14:17.621Z,45.10
2018-09-23T13:16:45.064Z,45.50
2018-09-23T13:19:12.569Z,45.80
2018-09-23T13:21:39.994Z,46.00
2018-09-23T13:24:07.467Z,46.20
2018-09-23T13:26:34.905Z,46.40
2018-09-23T13:29:02.409Z,46.40
2018-09-23T13:31:29.795Z,46.30
2018-09-23T13:33:57.201Z,46.20
2018-09-23T13:36:24.611Z,46.10
2018-09-23T13:38:52.057Z,46.00
2018-09-23T13:41:19.488Z,45.90
2018-09-23T13:43:47.613Z,45.80
2018-09-23T13:46:15.077Z,45.70
2018-09-23T13:48:42.529Z,45.50
2018-09-23T13:51:09.970Z,43.90
2018-09-23T13:53:37.394Z,45.30
2018-09-23T13:56:04.871Z,45.20
2018-09-23T13:58:32.361Z,45.20
2018-09-23T14:00:59.844Z,45.00
2018-09-23T14:03:27.274Z,44.70
2018-09-23T14:05:54.694Z,44.50
2018-09-23T14:08:22.170Z,44.00
2018-09-23T14:10:49.640Z,43.60
2018-09-23T14:13:17.034Z,42.70
2018-09-23T14:15:44.498Z,42.00
2018-09-23T14:18:11.976Z,41.20
2018-09-23T14:20:39.499Z,40.40
2018-09-23T14:23:06.902Z,39.50
2018-09-23T14:25:34.364Z,38.80
2018-09-23T14:28:01.778Z,37.90
2018-09-23T14:30:29.262Z,37.30
2018-09-23T14:32:56.693Z,36.60
2018-09-23T14:35:24.213Z,36.10
2018-09-23T14:37:51.609Z,35.50
2018-09-23T14:40:19.040Z,35.00
2018-09-23T14:42:46.480Z,34.70
2018-09-23T14:45:13.943Z,34.30
2018-09-23T14:47:41.382Z,34.00
2018-09-23T14:50:08.818Z,33.70
2018-09-23T14:52:36.223Z,33.50
2018-09-23T14:55:03.950Z,33.20
2018-09-23T14:57:31.475Z,33.00
2018-09-23T15:00:03.067Z,32.70
2018-09-23T15:02:26.372Z,32.50
2018-09-23T15:04:53.766Z,32.30
2018-09-23T15:07:21.166Z,32.10
2018-09-23T15:09:48.654Z,31.90
2018-09-23T15:12:16.832Z,31.80
2018-09-23T15:14:44.309Z,31.60
2018-09-23T15:17:11.842Z,31.50
2018-09-23T15:19:39.256Z,31.40
2018-09-23T15:22:07.376Z,31.20
2018-09-23T15:24:34.783Z,31.10
2018-09-23T15:27:02.229Z,31.00
2018-09-23T15:29:29.716Z,30.80
2018-09-23T15:31:57.203Z,30.70
2018-09-23T15:34:24.609Z,30.60
2018-09-23T15:36:52.031Z,30.50
2018-09-23T15:39:19.459Z,30.40
2018-09-23T15:41:46.911Z,30.20
2018-09-23T15:44:14.435Z,30.10
2018-09-23T15:46:41.884Z,29.80
2018-09-23T15:49:09.388Z,29.90
2018-09-23T15:51:36.817Z,29.80
2018-09-23T15:54:04.235Z,29.70
2018-09-23T15:56:31.689Z,29.60
2018-09-23T15:58:59.164Z,29.50
2018-09-23T16:01:26.595Z,29.40
2018-09-23T16:03:54.083Z,29.40
2018-09-23T16:06:21.537Z,29.30
2018-09-23T16:08:49.103Z,29.20
2018-09-23T16:11:16.567Z,29.20
2018-09-23T16:13:44.028Z,29.10
2018-09-23T16:16:11.501Z,29.00
2018-09-23T16:18:39.022Z,28.90
2018-09-23T16:21:06.446Z,28.80
2018-09-23T16:23:33.870Z,28.70
2018-09-23T16:26:01.331Z,28.70
2018-09-23T16:28:28.892Z,28.50
2018-09-23T16:30:56.363Z,28.50
2018-09-23T16:33:23.827Z,28.50
2018-09-23T16:35:51.238Z,28.40
2018-09-23T16:38:18.760Z,28.30
2018-09-23T16:40:46.238Z,28.30
2018-09-23T16:43:13.640Z,28.20
2018-09-23T16:45:41.087Z,28.20
2018-09-23T16:48:08.559Z,28.10
2018-09-23T16:50:36.208Z,28.10
2018-09-23T16:53:03.639Z,28.10
2018-09-23T16:55:31.781Z,28.00
2018-09-23T16:57:59.218Z,28.00
2018-09-23T17:00:27.242Z,27.90
2018-09-23T17:02:54.662Z,27.90
2018-09-23T17:05:22.110Z,27.80
2018-09-23T17:07:49.568Z,27.80
2018-09-23T17:10:17.004Z,27.70
2018-09-23T17:12:44.460Z,25.60
2018-09-23T17:15:11.985Z,27.60
2018-09-23T17:17:39.447Z,27.60
2018-09-23T17:20:06.954Z,27.60
2018-09-23T17:22:34.463Z,27.50
2018-09-23T17:25:01.894Z,27.50
2018-09-23T17:27:29.387Z,27.40
2018-09-23T17:29:56.907Z,27.40
2018-09-23T17:32:24.542Z,27.40
2018-09-23T17:34:52.086Z,27.40
2018-09-23T17:37:19.651Z,27.30
2018-09-23T17:39:47.246Z,27.30
2018-09-23T17:42:16.158Z,27.20
2018-09-23T17:44:43.673Z,27.30
2018-09-23T17:47:11.393Z,27.20
2018-09-23T17:49:38.866Z,27.00
2018-09-23T17:52:06.955Z,27.20
2018-09-23T17:54:34.804Z,27.20
2018-09-23T17:57:02.261Z,27.20
2018-09-23T17:59:30.192Z,27.10
2018-09-23T18:01:57.681Z,27.10
2018-09-23T18:04:25.107Z,27.10
2018-09-23T18:06:52.662Z,27.00
2018-09-23T18:09:20.240Z,27.00
2018-09-23T18:11:47.669Z,27.00
2018-09-23T18:14:15.114Z,27.00
2018-09-23T18:16:42.565Z,27.00
2018-09-23T18:19:10.054Z,27.00
2018-09-23T18:21:37.582Z,27.00
2018-09-23T18:24:04.992Z,27.00
2018-09-23T18:26:32.477Z,26.90
2018-09-23T18:28:59.925Z,26.90
2018-09-23T18:31:27.369Z,26.90
2018-09-23T18:33:54.811Z,26.90
2018-09-23T18:36:22.229Z,26.90
2018-09-23T18:38:49.669Z,26.90
2018-09-23T18:41:17.100Z,26.90
2018-09-23T18:43:44.545Z,26.90
2018-09-23T18:46:11.986Z,26.90
2018-09-23T18:48:39.425Z,26.70
2018-09-23T18:51:06.893Z,26.80
2018-09-23T18:53:34.415Z,26.80
2018-09-23T18:56:01.877Z,26.70
2018-09-23T18:58:29.337Z,26.70
2018-09-23T19:00:56.816Z,26.60
2018-09-23T19:03:24.331Z,26.50
2018-09-23T19:05:51.699Z,26.60
2018-09-23T19:08:19.152Z,26.60
2018-09-23T19:10:46.575Z,26.50
2018-09-23T19:13:19.939Z,26.40
2018-09-23T19:15:51.928Z,26.30
2018-09-23T19:18:19.361Z,26.10
2018-09-23T19:20:46.967Z,25.80
2018-09-23T19:23:14.377Z,25.50
2018-09-23T19:25:41.829Z,25.20
2018-09-23T19:28:09.261Z,24.90
2018-09-23T19:30:36.826Z,24.70
2018-09-23T19:33:04.306Z,24.40
2018-09-23T19:35:31.738Z,24.20
2018-09-23T19:38:00.487Z,24.00
2018-09-23T19:40:28.124Z,21.50
2018-09-23T19:42:55.615Z,23.60
2018-09-23T19:45:23.086Z,23.30
2018-09-23T19:47:50.530Z,23.10
2018-09-23T19:50:17.943Z,23.00
2018-09-23T19:52:45.920Z,22.70
2018-09-23T19:55:13.430Z,22.50
2018-09-23T19:57:40.895Z,22.40
2018-09-23T20:00:08.499Z,22.30
2018-09-23T20:02:35.955Z,22.20
2018-09-23T20:05:03.472Z,22.10
2018-09-23T20:07:30.953Z,21.90
2018-09-23T20:09:58.403Z,21.90
2018-09-23T20:12:25.904Z,21.80
2018-09-23T20:14:53.344Z,21.70
2018-09-23T20:17:20.792Z,21.70
2018-09-23T20:19:48.207Z,21.60
2018-09-23T20:22:15.668Z,21.50
2018-09-23T20:24:43.165Z,21.50
2018-09-23T20:27:10.576Z,21.40
2018-09-23T20:29:38.033Z,21.40
2018-09-23T20:32:05.471Z,21.30
2018-09-23T20:34:33.319Z,21.30
2018-09-23T20:37:01.294Z,21.30
2018-09-23T20:39:28.811Z,21.20
2018-09-23T20:41:56.246Z,21.20
2018-09-23T20:44:23.702Z,21.10
2018-09-23T20:46:51.161Z,21.10
2018-09-23T20:49:18.604Z,21.00
2018-09-23T20:51:46.112Z,20.90
2018-09-23T20:54:14.223Z,20.90
2018-09-23T20:56:41.733Z,20.80
2018-09-23T20:59:09.519Z,20.70
2018-09-23T21:01:36.960Z,20.70
2018-09-23T21:04:04.428Z,20.60
2018-09-23T21:06:32.050Z,20.50
2018-09-23T21:08:59.624Z,20.50
2018-09-23T21:11:27.280Z,20.40
2018-09-23T21:13:54.707Z,20.40
2018-09-23T21:16:22.247Z,20.30
2018-09-23T21:18:49.761Z,20.30
2018-09-23T21:21:17.224Z,20.20
2018-09-23T21:23:44.630Z,20.20
2018-09-23T21:26:12.218Z,20.20
2018-09-23T21:28:39.845Z,20.20
2018-09-23T21:31:07.307Z,20.10
2018-09-23T21:33:34.810Z,20.10
2018-09-23T21:36:02.218Z,20.10
2018-09-23T21:38:30.733Z,20.00
2018-09-23T21:40:58.140Z,20.00
2018-09-23T21:43:25.854Z,20.00
2018-09-23T21:45:53.266Z,20.00
2018-09-23T21:48:20.673Z,19.90
2018-09-23T21:50:48.187Z,19.90
2018-09-23T21:53:15.651Z,19.80
2018-09-23T21:55:44.005Z,19.80
2018-09-23T21:58:11.446Z,19.70
2018-09-23T22:00:44.192Z,19.70
2018-09-23T22:03:13.029Z,19.60
2018-09-23T22:05:40.449Z,19.60
2018-09-23T22:08:08.267Z,19.50
2018-09-23T22:10:36.046Z,19.50
2018-09-23T22:13:03.497Z,19.40
2018-09-23T22:15:30.950Z,19.40
2018-09-23T22:17:58.397Z,19.40
2018-09-23T22:20:26.569Z,19.40
2018-09-23T22:22:54.723Z,19.30
2018-09-23T22:25:22.710Z,19.30
2018-09-23T22:27:50.339Z,19.30
2018-09-23T22:30:17.891Z,19.20
2018-09-23T22:32:45.276Z,19.20
2018-09-23T22:35:12.717Z,19.20
2018-09-23T22:37:40.189Z,19.10
2018-09-23T22:40:07.645Z,19.00
2018-09-23T22:42:36.282Z,18.90
2018-09-23T22:45:04.174Z,18.90
2018-09-23T22:47:31.598Z,18.90
2018-09-23T22:49:59.161Z,18.80
2018-09-23T22:52:26.633Z,18.80
2018-09-23T22:54:54.037Z,18.80
2018-09-23T22:57:21.445Z,18.70
2018-09-23T22:59:49.079Z,18.70
2018-09-23T23:02:16.500Z,18.60
2018-09-23T23:04:43.900Z,18.60
2018-09-23T23:07:11.344Z,18.50
2018-09-23T23:09:38.807Z,18.40
2018-09-23T23:12:06.288Z,18.40
2018-09-23T23:14:34.061Z,18.30
2018-09-23T23:17:01.529Z,18.30
2018-09-23T23:19:29.004Z,18.20
2018-09-23T23:21:56.480Z,18.20
2018-09-23T23:24:23.884Z,18.10
2018-09-23T23:26:51.367Z,18.10
2018-09-23T23:29:18.790Z,18.10
2018-09-23T23:31:46.448Z,18.00
2018-09-23T23:34:13.878Z,18.00
2018-09-23T23:36:41.287Z,17.90
2018-09-23T23:39:09.902Z,17.90
2018-09-23T23:41:37.386Z,17.90
2018-09-23T23:44:04.817Z,17.90
2018-09-23T23:46:32.232Z,17.80
2018-09-23T23:48:59.634Z,17.80
2018-09-23T23:51:27.059Z,17.70
2018-09-23T23:53:54.471Z,17.70
2018-09-23T23:56:21.895Z,17.70
2018-09-23T23:58:49.355Z,17.70
